Silverstone, North Carolina
Current Conditions -  °F | °C
As of 10:15 AM on Saturday 22 Nov 2014 (Local Time) from KTNB Reporting Station
Clear Clear  
Wind Chill: 38°   Ceiling: Unl
Heat Index: 38°   Visibility: 10mi
Dew Point: 17°   Wind: 0mph
Humidity: 41%   Direction: NA
Pressure: 30.42"   Gusts: NA
Location:  36.3301°N, 81.7398°W
Report Text: KTNB 221515Z AUTO 00000KT 10SM CLR 04/M08 A3042 RMK AO2 T00361085
Loading
Personal Weather Stations






























Interactive Weather Map New forecast layout! Learn more

10-Day Weather Forecast

Advertisements
Track Severe Weather on mobile